This is the latest recevied weather packets stored in our database for station/object K3SV. If no packets are shown the sender has not sent any weather packets the latest 1 day(s).
| Time | Temp. | Humidity | Pressure | Rain* | Wind** | Luminosity | Snow |
|---|---|---|---|---|---|---|---|
| 1778008268 | 30° C | 46% | 1014.8 hPa | 0 mm | 0.89 m/s, 154° | 737 W/m² | - |
| 1778007963 | 30.56° C | 44% | 1014.9 hPa | 0 mm | 0 m/s | 672 W/m² | - |
| 1778007658 | 30° C | 47% | 1015 hPa | 0 mm | 0.45 m/s, 95° | 695 W/m² | - |
| 1778007355 | 30° C | 45% | 1015.1 hPa | 0 mm | 0.89 m/s, 352° | 706 W/m² | - |
| 1778007051 | 28.89° C | 48% | 1015.3 hPa | 0 mm | 0.89 m/s, 97° | 698 W/m² | - |
| 1778006742 | 29.44° C | 48% | 1015.2 hPa | 0 mm | 0.89 m/s, 137° | 251 W/m² | - |
| 1778006439 | 29.44° C | 48% | 1015.1 hPa | 0 mm | 0.45 m/s, 114° | 233 W/m² | - |
| 1778006136 | 30° C | 47% | 1015.3 hPa | 0 mm | 0 m/s | 218 W/m² | - |
| 1778005834 | 30° C | 44% | 1015.2 hPa | 0 mm | 0 m/s | 228 W/m² | - |
| 1778005530 | 30° C | 44% | 1015.3 hPa | 0 mm | 0.89 m/s, 247° | 339 W/m² | - |
| 1778005226 | 30° C | 46% | 1015.3 hPa | 0 mm | 2.68 m/s, 198° | 829 W/m² | - |
| 1778004923 | 30° C | 48% | 1015.5 hPa | 0 mm | 0 m/s | 807 W/m² | - |
| 1778004620 | 29.44° C | 48% | 1015.5 hPa | 0 mm | 0.45 m/s, 76° | 803 W/m² | - |
| 1778004310 | 29.44° C | 49% | 1015.6 hPa | 0 mm | 0.45 m/s, 56° | 776 W/m² | - |
| 1778004020 | 28.89° C | 49% | 1015.5 hPa | 0 mm | 1.34 m/s, 44° | 739 W/m² | - |
| 1778003703 | 30° C | 48% | 1015.5 hPa | 0 mm | 0.89 m/s, 58° | 775 W/m² | - |
| 1778003401 | 29.44° C | 49% | 1015.8 hPa | 0 mm | 1.79 m/s, 36° | 786 W/m² | - |
| 1778003098 | 29.44° C | 50% | 1015.7 hPa | 0 mm | 0.45 m/s, 157° | 789 W/m² | - |
| 1778002793 | 29.44° C | 49% | 1015.8 hPa | 0 mm | 0.45 m/s, 80° | 756 W/m² | - |
| 1778002490 | 28.89° C | 49% | 1016 hPa | 0 mm | 0.45 m/s, 127° | 753 W/m² | - |
| 1778002187 | 28.33° C | 48% | 1016.1 hPa | 0 mm | 0.89 m/s, 189° | 754 W/m² | - |
| 1778001886 | 28.89° C | 48% | 1016.3 hPa | 0 mm | 0 m/s | 232 W/m² | - |
| 1778001584 | 28.89° C | 50% | 1016.1 hPa | 0 mm | 0 m/s | 396 W/m² | - |
| 1778001281 | 28.89° C | 50% | 1016.2 hPa | 0 mm | 0.89 m/s, 131° | 267 W/m² | - |
| 1778000977 | 28.33° C | 51% | 1016.2 hPa | 0 mm | 0 m/s | 789 W/m² | - |
* Rain latest hour (hover to see other rain measurements)
** Current wind speed in m/s (hover to see current wind gust speed)